Hancock, WI (54943)

9:46 PM CDT on September 20, 2014 (GMT -0500)
Town of Saratoga | Change Station
CLOSE
Current Station
Personal Weather Station
Location: Nekoosa, WI
Elevation: 972 ft
Nearby Weather Stations
Active Advisory: Special Statement Active Notice: Local Storm Report

Elev 972 ft 44.31 °N, 89.87 °W | Updated 2 seconds ago

Rain
Rain
59.4 °F
Feels Like 59.4 °F
N
3.8
Wind Variable Wind from NNW
Gusts 9.8 mph

Today
High -- | Low -- °F
--% Chance of Precip.
Yesterday
High -- | Low -- °F
Precip. -- in
6:43 AM 6:59 PM
Waning Crescent, 9% visible
Pressure 29.78 in
Visibility 3.0 miles
Clouds Scattered Clouds 1700 ft
Mostly Cloudy 4900 ft
Overcast 7000 ft
Dew Point 59 °F
Humidity 99%
Rainfall 0.22 in
Snow Depth Not available.
UV 0 out of 12
Pollen .50 out of 12
Air Quality Not available.
Flu Activity Not available.
SPECI KISW 210237Z AUTO 28012G34KT 3SM +TSRA BR SCT017 BKN049 OVC070 16/14 A2978 RMK AO2 PK WND 27034/0232 LTG DSNT ALQDS RAB19 TSB31 PRESRR P0005 T01610144

More Conditions Fewer Conditions

Pressure 29.78 in
Visibility 3.0 miles
Clouds Scattered Clouds 1700 ft
Mostly Cloudy 4900 ft
Overcast 7000 ft
Dew Point 59 °F
Humidity 99%
Rainfall 0.22 in
Snow Depth Not available.
UV 0 out of 12
Pollen .50 out of 12
Air Quality Not available.
Flu Activity Not available.
SPECI KISW 210237Z AUTO 28012G34KT 3SM +TSRA BR SCT017 BKN049 OVC070 16/14 A2978 RMK AO2 PK WND 27034/0232 LTG DSNT ALQDS RAB19 TSB31 PRESRR P0005 T01610144

More Conditions Fewer Conditions

10-Day Weather Forecast

Almanac

Astronomy

Sep. 20, 2014 Rise Set
Actual Time 6:43 AM CDT 6:59 PM CDT
Civil Twilight 6:14 AM CDT 7:28 PM CDT
Nautical Twilight 5:40 AM CDT 8:02 PM CDT
Astronomical Twilight 5:05 AM CDT 8:37 PM CDT
Moon 3:16 AM CDT (9/20) 5:08 PM CDT (9/20)
Length of Visible Light 13h 14m
Length of Day
12h 16m
Tomorrow will be 3m 1s shorter.
Waning Crescent, 9% of the Moon is Illuminated
Today
Waning Crescent
Sep 24
New
Oct 1
First Quarter
Oct 8
Full
Oct 15
Last Quarter

Today's Extremes

State Highs State Lows

Community

WunderPhotos

Upload Photos

1,755,066 photos uploaded!

WunderBlogs® & News

Nearby

Snow Depth

Station Depth Elevation
No new snow has been reported.

Earthquake Activity

City Distance Mag. Time & Date
No recent earthquake activity has been reported nearby.
Minimum magnitude displayed is 2.5.

Coastal Water Temperatures

Place Temperature
No Stations Reporting

Nearby Weather Stations